Time;durP1;ratioP1;P1;durP2;ratioP2;P2;SDS_P1;SDS_P2;PMS_P1;PMS_P2;Temp;Humidity;BMP_temperature;BMP_pressure;BME280_temperature;BME280_humidity;BME280_pressure;Samples;Min_cycle;Max_cycle;Signal;HPM_P1;HPM_P2
2021/01/24 00:01:09;;;;;;;405.33;127.97;;;12.20;99.90;;;;;;5008394;28;20425;-80
2021/01/24 00:03:36;;;;;;;407.30;124.50;;;12.20;99.90;;;;;;5021610;28;20429;-80
2021/01/24 00:06:04;;;;;;;407.83;127.85;;;12.20;99.90;;;;;;5012570;28;20859;-80
2021/01/24 00:08:31;;;;;;;412.08;134.90;;;12.20;99.90;;;;;;5011255;28;20791;-80
2021/01/24 00:10:58;;;;;;;412.63;136.95;;;12.20;99.90;;;;;;5013572;28;20425;-80
2021/01/24 00:13:25;;;;;;;409.55;125.50;;;12.20;99.90;;;;;;5010964;28;20427;-80
2021/01/24 00:15:53;;;;;;;423.98;141.90;;;12.20;99.90;;;;;;5009258;28;20846;-80
2021/01/24 00:18:20;;;;;;;420.52;138.25;;;12.20;99.90;;;;;;4993352;28;20439;-80
2021/01/24 00:20:47;;;;;;;418.03;140.27;;;12.20;99.90;;;;;;5022306;28;20616;-80
2021/01/24 00:23:14;;;;;;;414.00;127.30;;;12.20;99.90;;;;;;5008104;28;20475;-80
2021/01/24 00:25:41;;;;;;;421.10;136.43;;;12.20;99.90;;;;;;5013325;28;20438;-80
2021/01/24 00:28:08;;;;;;;421.02;136.05;;;12.20;99.90;;;;;;5008288;28;20438;-80
2021/01/24 00:30:35;;;;;;;416.52;132.07;;;12.20;99.90;;;;;;5010091;28;20448;-80
2021/01/24 00:33:03;;;;;;;417.38;134.65;;;12.20;99.90;;;;;;4993519;28;20437;-79
2021/01/24 00:35:30;;;;;;;417.35;132.75;;;12.20;99.90;;;;;;5027456;28;20447;-80
2021/01/24 00:37:56;;;;;;;419.52;132.60;;;12.10;99.90;;;;;;5022259;28;20442;-79
2021/01/24 00:40:24;;;;;;;420.23;133.27;;;12.20;99.90;;;;;;5026277;28;20443;-79
2021/01/24 00:42:51;;;;;;;417.65;132.27;;;12.20;99.90;;;;;;5009176;28;20437;-80
2021/01/24 00:45:18;;;;;;;420.02;131.93;;;12.20;99.90;;;;;;4992411;28;20744;-80
2021/01/24 00:47:45;;;;;;;420.08;135.45;;;12.10;99.90;;;;;;5010901;28;20414;-80
2021/01/24 00:50:14;;;;;;;417.42;128.55;;;12.20;99.90;;;;;;5013436;28;20420;-79
2021/01/24 00:52:40;;;;;;;415.08;130.35;;;12.20;99.90;;;;;;4995998;28;20436;-80
2021/01/24 00:55:08;;;;;;;415.42;130.65;;;12.20;99.90;;;;;;5015631;28;20427;-80
2021/01/24 00:57:35;;;;;;;416.85;128.13;;;12.10;99.90;;;;;;5050914;28;20914;-80
2021/01/24 01:00:03;;;;;;;413.58;125.43;;;12.10;99.90;;;;;;4995603;28;20459;-80
2021/01/24 01:02:30;;;;;;;416.20;130.68;;;12.10;99.90;;;;;;5033922;28;20429;-80
2021/01/24 01:04:57;;;;;;;415.67;129.40;;;12.10;99.90;;;;;;4994200;28;20413;-80
2021/01/24 01:07:25;;;;;;;412.55;124.75;;;12.10;99.90;;;;;;5018493;28;20439;-80
2021/01/24 01:09:52;;;;;;;409.20;125.47;;;12.10;99.90;;;;;;5035574;28;20429;-79
2021/01/24 01:12:19;;;;;;;409.57;122.83;;;12.20;99.90;;;;;;5019567;28;20502;-79
2021/01/24 01:14:46;;;;;;;407.45;121.75;;;12.10;99.90;;;;;;4998186;28;20425;-80
2021/01/24 01:17:14;;;;;;;407.40;125.05;;;12.10;99.90;;;;;;5001696;28;20426;-80
2021/01/24 01:19:42;;;;;;;407.15;121.03;;;12.20;99.90;;;;;;5001965;28;20429;-80
2021/01/24 01:22:09;;;;;;;412.53;129.30;;;12.10;99.90;;;;;;5029838;28;20884;-79
2021/01/24 01:24:37;;;;;;;404.33;122.43;;;12.10;99.90;;;;;;5001729;28;20421;-79
2021/01/24 01:27:04;;;;;;;410.55;126.55;;;12.10;99.90;;;;;;4996618;28;20433;-80
2021/01/24 01:29:31;;;;;;;410.90;124.68;;;12.10;99.90;;;;;;5037754;28;20906;-80
2021/01/24 01:31:58;;;;;;;411.60;128.10;;;12.10;99.90;;;;;;4998960;28;20433;-80
2021/01/24 01:34:25;;;;;;;413.25;131.32;;;12.10;99.90;;;;;;5044809;28;20445;-80
2021/01/24 01:36:52;;;;;;;408.00;122.68;;;12.10;99.90;;;;;;5027077;28;20859;-80
2021/01/24 01:39:19;;;;;;;409.58;127.40;;;12.10;99.90;;;;;;5016147;28;20470;-80
2021/01/24 01:41:47;;;;;;;405.38;121.93;;;12.10;99.90;;;;;;5013391;28;20433;-80
2021/01/24 01:44:14;;;;;;;404.55;120.68;;;12.10;99.90;;;;;;4998717;28;20426;-80
2021/01/24 01:46:42;;;;;;;407.70;122.97;;;12.10;99.90;;;;;;5012441;28;20429;-80
2021/01/24 01:49:09;;;;;;;404.92;119.22;;;12.10;99.90;;;;;;5011924;28;20432;-80
2021/01/24 01:51:36;;;;;;;400.00;121.47;;;12.10;99.90;;;;;;4997542;28;20436;-80
2021/01/24 01:54:05;;;;;;;408.75;126.80;;;12.10;99.90;;;;;;5014580;28;20436;-80
2021/01/24 01:56:32;;;;;;;399.85;118.78;;;12.20;99.90;;;;;;5030200;28;20441;-80
2021/01/24 01:59:00;;;;;;;402.05;118.68;;;12.20;99.90;;;;;;5032210;28;20437;-80
2021/01/24 02:01:35;;;;;;;402.30;119.65;;;12.20;99.90;;;;;;5037321;28;20421;-80
2021/01/24 02:04:10;;;;;;;406.33;125.22;;;12.20;99.90;;;;;;5033932;28;20908;-80
2021/01/24 02:06:44;;;;;;;403.75;123.88;;;12.20;99.90;;;;;;5049444;28;20444;-80
2021/01/24 02:09:19;;;;;;;398.45;117.70;;;12.20;99.90;;;;;;5036237;28;20417;-80
2021/01/24 02:11:52;;;;;;;405.43;122.83;;;12.20;99.90;;;;;;5033349;28;20492;-79
2021/01/24 02:14:30;;;;;;;397.13;117.75;;;12.20;99.90;;;;;;5029595;28;20429;-80
2021/01/24 02:17:00;;;;;;;395.35;118.20;;;12.20;99.90;;;;;;5032295;28;20431;-80
2021/01/24 02:19:41;;;;;;;394.90;117.25;;;12.20;99.90;;;;;;5048139;28;20544;-79
2021/01/24 02:22:10;;;;;;;391.42;113.95;;;12.20;99.90;;;;;;5033618;28;20453;-79
2021/01/24 02:24:42;;;;;;;389.17;114.68;;;12.20;99.90;;;;;;5046471;28;20417;-79
2021/01/24 02:27:15;;;;;;;394.50;119.90;;;12.20;99.90;;;;;;5030184;28;20759;-79
2021/01/24 02:29:56;;;;;;;393.15;117.03;;;12.20;99.90;;;;;;5015640;28;20479;-79
2021/01/24 02:32:26;;;;;;;392.13;116.05;;;12.20;99.90;;;;;;5033295;28;20427;-80
2021/01/24 02:34:56;;;;;;;393.63;119.32;;;12.10;99.90;;;;;;5010057;28;20436;-79
2021/01/24 02:37:25;;;;;;;394.35;116.78;;;12.20;99.90;;;;;;5013298;28;20436;-80
2021/01/24 02:39:53;;;;;;;396.20;118.43;;;12.10;99.90;;;;;;4994227;28;20451;-79
2021/01/24 02:42:20;;;;;;;400.63;122.13;;;12.10;99.90;;;;;;5025734;28;20451;-79
2021/01/24 02:44:48;;;;;;;400.05;119.97;;;12.20;99.90;;;;;;5029715;28;20430;-79
2021/01/24 02:47:16;;;;;;;396.33;118.82;;;12.20;99.90;;;;;;4996082;28;20437;-80
2021/01/24 02:49:45;;;;;;;398.67;119.57;;;12.20;99.90;;;;;;5028132;28;20421;-79
2021/01/24 02:52:14;;;;;;;406.77;128.55;;;12.20;99.90;;;;;;5033003;28;20784;-79
2021/01/24 02:54:42;;;;;;;405.13;122.07;;;12.20;99.90;;;;;;5007386;28;20429;-80
2021/01/24 02:57:10;;;;;;;405.15;121.50;;;12.20;99.90;;;;;;5031216;28;20467;-80
2021/01/24 02:59:38;;;;;;;396.35;116.88;;;12.10;99.90;;;;;;5024052;28;20425;-80
2021/01/24 03:02:33;;;;;;;410.45;137.00;;;12.20;99.90;;;;;;4983785;28;20794;-80
2021/01/24 03:05:01;;;;;;;405.42;123.80;;;12.10;99.90;;;;;;5026774;28;20441;-80
2021/01/24 03:07:29;;;;;;;398.83;118.47;;;12.20;99.90;;;;;;5028536;28;20429;-80
2021/01/24 03:09:56;;;;;;;417.80;128.50;;;12.10;99.90;;;;;;5010848;28;20437;-80
2021/01/24 03:12:25;;;;;;;409.70;124.57;;;12.10;99.90;;;;;;5032607;28;20447;-80
2021/01/24 03:14:54;;;;;;;406.83;123.47;;;12.10;99.90;;;;;;5015150;28;20454;-79
2021/01/24 03:17:23;;;;;;;409.10;122.18;;;12.10;99.90;;;;;;4998566;28;20439;-79
2021/01/24 03:19:51;;;;;;;418.80;128.82;;;12.10;99.90;;;;;;5018517;28;20433;-79
2021/01/24 03:22:19;;;;;;;412.00;123.75;;;12.10;99.90;;;;;;5013967;28;20432;-79
2021/01/24 03:24:49;;;;;;;412.42;128.38;;;12.10;99.90;;;;;;5033387;28;20441;-80
2021/01/24 03:27:17;;;;;;;412.02;123.70;;;12.10;99.90;;;;;;5016735;28;20822;-80
2021/01/24 03:29:44;;;;;;;418.48;130.48;;;12.10;99.90;;;;;;5031329;28;20432;-80
2021/01/24 03:32:12;;;;;;;410.77;123.18;;;12.10;99.90;;;;;;5031209;28;20437;-80
2021/01/24 03:34:39;;;;;;;415.23;126.07;;;12.10;99.90;;;;;;5001047;28;20490;-79
2021/01/24 03:37:06;;;;;;;409.10;121.10;;;12.10;99.90;;;;;;5019151;28;20429;-79
2021/01/24 03:39:34;;;;;;;413.83;123.28;;;12.10;99.90;;;;;;5014392;28;20433;-80
2021/01/24 03:42:01;;;;;;;412.90;123.95;;;12.10;99.90;;;;;;5016969;28;20427;-80
2021/01/24 03:44:28;;;;;;;413.50;122.15;;;12.10;99.90;;;;;;5015178;28;20432;-79
2021/01/24 03:46:55;;;;;;;414.25;124.63;;;12.10;99.90;;;;;;5017337;28;20437;-80
2021/01/24 03:49:22;;;;;;;413.93;123.77;;;12.10;99.90;;;;;;5010605;28;20497;-79
2021/01/24 03:51:49;;;;;;;411.92;119.72;;;12.10;99.90;;;;;;5001246;28;20426;-80
2021/01/24 03:54:16;;;;;;;410.92;121.72;;;12.10;99.90;;;;;;5033752;28;20425;-80
2021/01/24 03:56:44;;;;;;;410.20;123.13;;;12.10;99.90;;;;;;5014248;28;20439;-80
2021/01/24 03:59:12;;;;;;;408.58;120.40;;;12.10;99.90;;;;;;5002759;28;20425;-80
2021/01/24 04:01:39;;;;;;;413.65;122.00;;;12.10;99.90;;;;;;5002632;28;20906;-80
2021/01/24 04:04:06;;;;;;;408.38;121.25;;;12.10;99.90;;;;;;5014274;28;20425;-79
2021/01/24 04:06:33;;;;;;;414.15;124.78;;;12.10;99.90;;;;;;5015529;28;20433;-79
2021/01/24 04:09:00;;;;;;;422.00;132.57;;;12.10;99.90;;;;;;5000054;28;20428;-79
2021/01/24 04:11:29;;;;;;;415.15;126.65;;;12.10;99.90;;;;;;4999222;28;20421;-80
2021/01/24 04:13:57;;;;;;;414.70;126.43;;;12.10;99.90;;;;;;5032889;28;20421;-80
2021/01/24 04:16:24;;;;;;;415.80;123.60;;;12.10;99.90;;;;;;5031731;28;20434;-80
2021/01/24 04:18:52;;;;;;;419.65;129.68;;;12.10;99.90;;;;;;5011524;28;20524;-80
2021/01/24 04:21:19;;;;;;;422.00;130.90;;;12.10;99.90;;;;;;5001197;28;20431;-79
2021/01/24 04:23:46;;;;;;;428.17;136.25;;;12.10;99.90;;;;;;4999170;28;20429;-79
2021/01/24 04:26:14;;;;;;;421.67;129.95;;;12.10;99.90;;;;;;5011427;28;20907;-79
2021/01/24 04:28:41;;;;;;;422.50;129.38;;;12.10;99.90;;;;;;5004249;28;20798;-79
2021/01/24 04:31:09;;;;;;;415.77;124.78;;;12.10;99.90;;;;;;5014912;28;20443;-79
2021/01/24 04:33:36;;;;;;;416.92;125.95;;;12.10;99.90;;;;;;5014203;28;20441;-79
2021/01/24 04:36:03;;;;;;;418.75;128.98;;;12.00;99.90;;;;;;5015981;28;22143;-79
2021/01/24 04:38:31;;;;;;;420.85;129.25;;;12.10;99.90;;;;;;5015761;28;20418;-79
2021/01/24 04:40:58;;;;;;;409.38;119.53;;;12.00;99.90;;;;;;4996372;28;20453;-79
2021/01/24 04:43:26;;;;;;;422.98;130.18;;;12.10;99.90;;;;;;5013094;28;20608;-79
2021/01/24 04:45:54;;;;;;;417.95;128.10;;;12.00;99.90;;;;;;5049702;28;20429;-79
2021/01/24 04:48:23;;;;;;;419.02;128.20;;;12.00;99.90;;;;;;5033683;28;20433;-79
2021/01/24 04:50:49;;;;;;;418.83;130.95;;;12.00;99.90;;;;;;5030228;28;20431;-79
2021/01/24 04:53:17;;;;;;;418.33;127.90;;;12.00;99.90;;;;;;5014220;28;20429;-79
2021/01/24 04:55:44;;;;;;;419.65;130.07;;;12.00;99.90;;;;;;5025652;28;20885;-80
2021/01/24 04:58:12;;;;;;;421.85;131.70;;;12.00;99.90;;;;;;5025957;28;20456;-79
2021/01/24 05:00:38;;;;;;;419.55;129.63;;;12.00;99.90;;;;;;5009174;28;20749;-79
2021/01/24 05:03:06;;;;;;;421.25;131.73;;;12.00;99.90;;;;;;5027560;28;20781;-79
2021/01/24 05:05:34;;;;;;;417.75;128.13;;;12.00;99.90;;;;;;5024359;28;20433;-79
2021/01/24 05:08:01;;;;;;;420.13;128.52;;;12.00;99.90;;;;;;4996957;28;20835;-79
2021/01/24 05:10:30;;;;;;;419.80;130.65;;;12.00;99.90;;;;;;5047730;28;20425;-79
2021/01/24 05:12:58;;;;;;;401.05;115.97;;;12.00;99.90;;;;;;5029825;28;20433;-79
2021/01/24 05:15:27;;;;;;;360.90;103.63;;;12.00;99.90;;;;;;5012867;28;20433;-79
2021/01/24 05:17:55;;;;;;;352.73;104.35;;;12.00;99.90;;;;;;5015694;28;20459;-79
2021/01/24 05:20:23;;;;;;;357.10;103.30;;;12.00;99.90;;;;;;5010412;28;20824;-79
2021/01/24 05:22:51;;;;;;;361.95;102.18;;;12.00;99.90;;;;;;5026873;28;20441;-79
2021/01/24 05:25:20;;;;;;;367.63;103.00;;;12.00;99.90;;;;;;5025790;28;20421;-78
2021/01/24 05:27:49;;;;;;;366.30;101.80;;;12.00;99.90;;;;;;5010903;28;20481;-79
2021/01/24 05:30:21;;;;;;;342.80;95.40;;;12.00;99.90;;;;;;5009264;28;20487;-79
2021/01/24 05:32:51;;;;;;;365.48;100.35;;;12.00;99.90;;;;;;5011565;28;20429;-79
2021/01/24 05:35:18;;;;;;;340.77;103.43;;;12.00;99.90;;;;;;5037798;28;20449;-79
2021/01/24 05:37:47;;;;;;;336.27;99.47;;;12.00;99.90;;;;;;5024960;28;20914;-79
2021/01/24 05:40:15;;;;;;;324.67;92.28;;;12.00;99.90;;;;;;5009333;28;20429;-79
2021/01/24 05:42:44;;;;;;;343.80;115.28;;;12.00;99.90;;;;;;5010715;28;20436;-79
2021/01/24 05:45:13;;;;;;;348.98;110.18;;;12.00;99.90;;;;;;5028898;28;20436;-79
2021/01/24 05:47:42;;;;;;;370.48;111.18;;;12.00;99.90;;;;;;5012535;28;20437;-79
2021/01/24 05:50:10;;;;;;;373.33;105.93;;;12.00;99.90;;;;;;5026814;28;20435;-79
2021/01/24 05:52:41;;;;;;;376.02;117.32;;;12.00;99.90;;;;;;5025710;28;20448;-80
2021/01/24 05:55:10;;;;;;;371.58;99.75;;;12.00;99.90;;;;;;5028962;28;20929;-79
2021/01/24 05:57:39;;;;;;;369.90;99.93;;;12.00;99.90;;;;;;5016078;28;20436;-78
2021/01/24 06:00:08;;;;;;;374.48;105.18;;;12.00;99.90;;;;;;5033464;28;20443;-79
2021/01/24 06:02:37;;;;;;;369.80;104.97;;;12.00;99.90;;;;;;5031666;28;20459;-79
2021/01/24 06:05:06;;;;;;;364.23;104.37;;;12.00;99.90;;;;;;5008279;28;20445;-79
2021/01/24 06:07:34;;;;;;;369.05;103.85;;;12.00;99.90;;;;;;5013906;28;20439;-79
2021/01/24 06:10:02;;;;;;;367.80;101.32;;;12.00;99.90;;;;;;5022558;28;20448;-79
2021/01/24 06:12:31;;;;;;;375.70;105.05;;;12.00;99.90;;;;;;5015929;28;20431;-79
2021/01/24 06:15:03;;;;;;;376.17;103.23;;;12.00;99.90;;;;;;5011908;28;20418;-79
2021/01/24 06:17:34;;;;;;;375.38;102.32;;;12.00;99.90;;;;;;5029890;28;21039;-79
2021/01/24 06:20:03;;;;;;;378.80;103.63;;;12.00;99.90;;;;;;5013172;28;20433;-79
2021/01/24 06:22:41;;;;;;;386.27;109.57;;;12.00;99.90;;;;;;5029578;28;20444;-79
2021/01/24 06:25:15;;;;;;;379.57;108.27;;;12.00;99.90;;;;;;5015177;28;20433;-79
2021/01/24 06:27:47;;;;;;;384.87;109.03;;;12.00;99.90;;;;;;5041055;28;20408;-80
2021/01/24 06:30:18;;;;;;;380.70;105.40;;;12.00;99.90;;;;;;5032344;28;20881;-79
2021/01/24 06:32:44;;;;;;;376.05;106.93;;;12.00;99.90;;;;;;5007413;28;20418;-79
2021/01/24 06:35:20;;;;;;;375.92;107.43;;;12.00;99.90;;;;;;5024186;28;20414;-79
2021/01/24 06:37:49;;;;;;;348.17;100.95;;;12.00;99.90;;;;;;5011947;28;25153;-80
2021/01/24 06:40:27;;;;;;;357.80;102.13;;;12.00;99.90;;;;;;5023497;28;20433;-79
2021/01/24 06:42:59;;;;;;;344.40;101.53;;;12.00;99.90;;;;;;5012547;28;20441;-79
2021/01/24 06:45:46;;;;;;;358.52;100.35;;;12.00;99.90;;;;;;5032124;28;20811;-80
2021/01/24 06:48:15;;;;;;;359.95;98.80;;;11.90;99.90;;;;;;5009043;28;20487;-80
2021/01/24 06:50:44;;;;;;;359.45;100.07;;;12.00;99.90;;;;;;5026742;28;20433;-80
2021/01/24 06:53:14;;;;;;;358.52;97.72;;;12.00;99.90;;;;;;5012443;28;20431;-79
2021/01/24 06:55:53;;;;;;;363.98;106.65;;;12.00;99.90;;;;;;4996201;28;20421;-79
2021/01/24 06:58:27;;;;;;;410.45;120.25;;;12.00;99.90;;;;;;5048886;28;20441;-80
2021/01/24 07:01:22;;;;;;;387.45;107.65;;;12.00;99.90;;;;;;5017909;28;20427;-80
2021/01/24 07:03:49;;;;;;;380.83;107.25;;;12.00;99.90;;;;;;5019357;28;20922;-81
2021/01/24 07:06:32;;;;;;;375.75;105.60;;;12.00;99.90;;;;;;5030264;28;20429;-81
2021/01/24 07:08:59;;;;;;;375.55;106.55;;;12.00;99.90;;;;;;5005029;28;20425;-81
2021/01/24 07:11:49;;;;;;;376.52;109.78;;;12.00;99.90;;;;;;5034312;28;20429;-81
2021/01/24 07:14:45;;;;;;;376.83;103.13;;;12.00;99.90;;;;;;5036577;28;20475;-81
2021/01/24 07:17:15;;;;;;;383.23;106.35;;;12.00;99.90;;;;;;5037857;28;20461;-81
2021/01/24 07:19:44;;;;;;;379.25;106.70;;;12.00;99.90;;;;;;5016532;28;20904;-81
2021/01/24 07:22:12;;;;;;;382.85;106.95;;;12.00;99.90;;;;;;5038008;28;20429;-81
2021/01/24 07:24:42;;;;;;;385.15;114.38;;;11.90;99.90;;;;;;5013470;28;20763;-81
2021/01/24 07:27:11;;;;;;;397.55;116.35;;;12.00;99.90;;;;;;5015581;28;20440;-81
2021/01/24 07:29:38;;;;;;;390.10;115.22;;;12.00;99.90;;;;;;5033188;28;20425;-81
2021/01/24 07:32:07;;;;;;;388.40;113.68;;;12.00;99.90;;;;;;5005720;28;20422;-81
2021/01/24 07:34:35;;;;;;;382.42;109.57;;;12.00;99.90;;;;;;5052063;28;20423;-82
2021/01/24 07:37:03;;;;;;;384.00;114.10;;;12.10;99.90;;;;;;5020024;28;20439;-81
2021/01/24 07:39:31;;;;;;;385.27;111.40;;;12.10;99.90;;;;;;5020100;28;20965;-81
2021/01/24 07:41:58;;;;;;;384.50;117.90;;;12.10;99.90;;;;;;5004355;28;20434;-83
2021/01/24 07:44:26;;;;;;;382.95;114.55;;;12.10;99.90;;;;;;5018678;28;20443;-80
2021/01/24 07:46:53;;;;;;;384.50;110.50;;;12.10;99.90;;;;;;5019640;28;20427;-80
2021/01/24 07:49:20;;;;;;;385.63;117.20;;;12.10;99.90;;;;;;4998804;28;20450;-80
2021/01/24 07:51:48;;;;;;;385.48;113.40;;;12.10;99.90;;;;;;5020708;28;20632;-81
2021/01/24 07:54:15;;;;;;;386.33;113.35;;;12.10;99.90;;;;;;4997910;28;20451;-82
2021/01/24 07:56:43;;;;;;;384.23;108.13;;;12.10;99.90;;;;;;5035146;28;20429;-81
2021/01/24 07:59:10;;;;;;;379.30;108.87;;;12.00;99.90;;;;;;5020950;28;20434;-81
2021/01/24 08:01:37;;;;;;;382.25;108.93;;;12.10;99.90;;;;;;5035009;28;20425;-82
2021/01/24 08:04:05;;;;;;;380.17;107.33;;;12.10;99.90;;;;;;5019075;28;20409;-82
2021/01/24 08:06:33;;;;;;;383.83;108.88;;;12.10;99.90;;;;;;5020055;28;20459;-81
2021/01/24 08:09:02;;;;;;;381.40;105.13;;;12.00;99.90;;;;;;5035031;28;20937;-81
2021/01/24 08:11:29;;;;;;;379.85;105.28;;;12.10;99.90;;;;;;5015287;28;20433;-81
2021/01/24 08:13:56;;;;;;;382.65;107.07;;;12.00;99.90;;;;;;5019901;28;20417;-81
2021/01/24 08:16:26;;;;;;;375.45;103.90;;;12.00;99.90;;;;;;5020545;28;20441;-81
2021/01/24 08:18:56;;;;;;;373.10;95.82;;;12.00;99.90;;;;;;5013681;28;20903;-82
2021/01/24 08:21:25;;;;;;;383.80;105.90;;;12.00;99.90;;;;;;5017040;28;20426;-82
2021/01/24 08:23:53;;;;;;;384.33;106.10;;;12.00;99.90;;;;;;5016828;28;20484;-82
2021/01/24 08:26:21;;;;;;;382.70;103.95;;;12.00;99.90;;;;;;5033579;28;20486;-82
2021/01/24 08:28:49;;;;;;;382.17;103.15;;;12.00;99.90;;;;;;5051665;28;20437;-82
2021/01/24 08:31:20;;;;;;;382.90;102.60;;;12.00;99.90;;;;;;5035199;28;20425;-82
2021/01/24 08:33:48;;;;;;;378.45;97.43;;;12.00;99.90;;;;;;5038089;28;20433;-81
2021/01/24 08:36:19;;;;;;;380.55;102.50;;;12.00;99.90;;;;;;5017191;28;20442;-81
2021/01/24 08:38:47;;;;;;;378.95;98.15;;;12.00;99.90;;;;;;5037445;28;20547;-82
2021/01/24 08:41:16;;;;;;;376.08;94.80;;;12.00;99.90;;;;;;5018073;28;20426;-81
2021/01/24 08:43:44;;;;;;;378.63;99.90;;;11.90;99.90;;;;;;5002133;28;20486;-81
2021/01/24 08:46:22;;;;;;;378.58;95.80;;;11.90;99.90;;;;;;5036339;28;20425;-81
2021/01/24 08:48:59;;;;;;;381.02;97.95;;;11.90;99.90;;;;;;5022291;28;20429;-79
2021/01/24 08:51:47;;;;;;;384.42;106.13;;;11.90;99.90;;;;;;5018087;28;20425;-80
2021/01/24 08:54:25;;;;;;;378.25;102.65;;;11.90;99.90;;;;;;5052983;28;20500;-79
2021/01/24 08:57:07;;;;;;;380.10;105.47;;;11.90;99.90;;;;;;5035786;28;20440;-81
2021/01/24 08:59:35;;;;;;;378.55;103.35;;;11.90;99.90;;;;;;5038702;28;20448;-82
2021/01/24 09:02:03;;;;;;;373.35;92.88;;;11.90;99.90;;;;;;5003481;28;20429;-82
2021/01/24 09:04:31;;;;;;;376.60;103.90;;;11.90;99.90;;;;;;5056277;28;20449;-81
2021/01/24 09:07:10;;;;;;;376.00;101.15;;;11.90;99.90;;;;;;5037571;28;20903;-82
2021/01/24 09:09:39;;;;;;;377.77;105.78;;;11.90;99.90;;;;;;5036022;28;20444;-81
2021/01/24 09:12:19;;;;;;;379.35;107.90;;;11.90;99.90;;;;;;5019080;28;20433;-81
2021/01/24 09:14:46;;;;;;;381.85;111.15;;;11.90;99.90;;;;;;5057682;28;20463;-81
2021/01/24 09:17:15;;;;;;;380.58;104.88;;;11.90;99.90;;;;;;5034760;28;20457;-81
2021/01/24 09:19:43;;;;;;;386.85;105.65;;;11.90;99.90;;;;;;5003428;28;20434;-81
2021/01/24 09:22:11;;;;;;;386.92;104.68;;;11.90;99.90;;;;;;5036693;28;20436;-81
2021/01/24 09:24:39;;;;;;;382.88;101.10;;;11.90;99.90;;;;;;5020787;28;20425;-81
2021/01/24 09:27:07;;;;;;;377.30;92.97;;;11.90;99.90;;;;;;5038369;28;20460;-82
2021/01/24 09:29:34;;;;;;;389.63;111.22;;;11.90;99.90;;;;;;5033386;28;20434;-81
2021/01/24 09:32:03;;;;;;;384.50;103.28;;;11.90;99.90;;;;;;5020562;28;20492;-81
2021/01/24 09:34:30;;;;;;;384.60;100.73;;;11.90;99.90;;;;;;5050087;28;20433;-81
2021/01/24 09:36:57;;;;;;;383.00;97.50;;;11.90;99.90;;;;;;5045373;28;20429;-81
2021/01/24 09:39:24;;;;;;;381.30;97.07;;;12.00;99.90;;;;;;5018980;28;20421;-81
2021/01/24 09:41:51;;;;;;;380.65;95.97;;;12.00;99.90;;;;;;5016967;28;20436;-81
2021/01/24 09:44:18;;;;;;;380.10;95.63;;;12.00;99.90;;;;;;5020925;28;20491;-81
2021/01/24 09:46:45;;;;;;;384.60;100.20;;;12.00;99.90;;;;;;5020126;28;20429;-81
2021/01/24 09:49:14;;;;;;;384.57;103.77;;;12.00;99.90;;;;;;5005457;28;20431;-81
2021/01/24 09:51:42;;;;;;;389.30;104.63;;;12.00;99.90;;;;;;5037623;28;20471;-81
2021/01/24 09:54:10;;;;;;;386.77;99.13;;;12.00;99.90;;;;;;5032841;28;20457;-82
2021/01/24 09:56:37;;;;;;;388.48;107.63;;;12.00;99.90;;;;;;5053403;28;20565;-81
2021/01/24 09:59:03;;;;;;;386.88;103.00;;;12.00;99.90;;;;;;5023186;28;20461;-81
2021/01/24 10:01:30;;;;;;;382.87;98.60;;;12.00;99.90;;;;;;5040123;28;20433;-81
2021/01/24 10:03:58;;;;;;;384.08;99.50;;;12.00;99.90;;;;;;5006454;28;20421;-81
2021/01/24 10:06:26;;;;;;;380.45;97.45;;;12.00;99.90;;;;;;5020681;28;20433;-81
2021/01/24 10:08:53;;;;;;;385.85;99.72;;;12.00;99.90;;;;;;5007380;28;20447;-81
2021/01/24 10:11:21;;;;;;;382.48;95.70;;;12.00;99.90;;;;;;5005317;28;20467;-82
2021/01/24 10:13:49;;;;;;;382.52;93.13;;;12.10;99.90;;;;;;5028170;28;20461;-81
2021/01/24 10:16:16;;;;;;;371.58;93.78;;;12.20;99.90;;;;;;5037636;28;20429;-81
2021/01/24 10:18:43;;;;;;;370.50;92.97;;;12.20;99.90;;;;;;5023005;28;20529;-81
2021/01/24 10:21:10;;;;;;;370.98;92.72;;;12.30;99.90;;;;;;5006650;28;20429;-80
2021/01/24 10:23:39;;;;;;;371.30;93.20;;;12.30;99.90;;;;;;5004158;28;20433;-80
2021/01/24 10:26:06;;;;;;;371.67;94.78;;;12.30;99.90;;;;;;5037376;28;20426;-80
2021/01/24 10:28:34;;;;;;;376.63;103.93;;;12.30;99.90;;;;;;5039316;28;20433;-80
2021/01/24 10:31:04;;;;;;;376.08;97.18;;;12.30;99.90;;;;;;5004820;28;20437;-80
2021/01/24 10:33:31;;;;;;;370.35;90.18;;;12.20;99.90;;;;;;5022774;28;20438;-80
2021/01/24 10:35:57;;;;;;;372.30;97.20;;;12.20;99.90;;;;;;5031854;28;21734;-79
2021/01/24 10:38:24;;;;;;;370.83;95.78;;;12.20;99.90;;;;;;5032386;28;20559;-80
2021/01/24 10:40:52;;;;;;;376.60;97.37;;;12.20;99.90;;;;;;5035499;28;20457;-78
2021/01/24 10:43:19;;;;;;;369.85;92.85;;;12.20;99.90;;;;;;5032480;28;20429;-78
2021/01/24 10:45:46;;;;;;;373.90;94.80;;;12.20;99.90;;;;;;5016099;28;20483;-79
2021/01/24 10:48:13;;;;;;;372.77;90.60;;;12.20;99.90;;;;;;5030336;28;20440;-79
2021/01/24 10:50:40;;;;;;;370.52;94.82;;;12.20;99.90;;;;;;5013010;28;20524;-79
2021/01/24 10:53:07;;;;;;;369.95;93.78;;;12.20;99.90;;;;;;5016259;28;20435;-79
2021/01/24 10:55:35;;;;;;;367.37;93.87;;;12.10;99.90;;;;;;5046510;28;20497;-79
2021/01/24 10:58:04;;;;;;;371.73;94.28;;;12.10;99.90;;;;;;5032041;28;20421;-79
2021/01/24 11:00:32;;;;;;;382.48;99.22;;;12.10;99.90;;;;;;4999058;28;20493;-79
2021/01/24 11:02:59;;;;;;;371.52;94.90;;;12.10;99.90;;;;;;5047491;28;20422;-79
2021/01/24 11:05:26;;;;;;;379.10;97.90;;;12.10;99.90;;;;;;5034429;28;20791;-79
2021/01/24 11:07:53;;;;;;;379.55;100.63;;;12.10;99.90;;;;;;5028649;28;20428;-79
2021/01/24 11:10:20;;;;;;;376.80;99.25;;;12.10;99.90;;;;;;5015862;28;20425;-79
2021/01/24 11:12:47;;;;;;;378.48;97.25;;;12.10;99.90;;;;;;5033554;28;20464;-79
2021/01/24 11:15:15;;;;;;;379.98;95.00;;;12.10;99.90;;;;;;5051539;28;20496;-79
2021/01/24 11:17:42;;;;;;;375.27;95.47;;;12.10;99.90;;;;;;5018555;28;20424;-79
2021/01/24 11:20:10;;;;;;;377.90;97.93;;;12.10;99.90;;;;;;5018128;28;20433;-79
2021/01/24 11:22:37;;;;;;;376.20;94.22;;;12.00;99.90;;;;;;5032906;28;20993;-79
2021/01/24 11:25:05;;;;;;;374.60;95.25;;;12.00;99.90;;;;;;5046232;28;20433;-79
2021/01/24 11:27:32;;;;;;;376.30;94.97;;;12.00;99.90;;;;;;5032755;28;20421;-79
2021/01/24 11:29:59;;;;;;;375.42;94.60;;;12.00;99.90;;;;;;5019596;28;20433;-79
2021/01/24 11:32:27;;;;;;;374.20;91.47;;;12.00;99.90;;;;;;5035509;28;20439;-79
2021/01/24 11:34:53;;;;;;;375.80;95.35;;;12.00;99.90;;;;;;5033747;28;21488;-79
2021/01/24 11:37:20;;;;;;;390.08;103.53;;;12.00;99.90;;;;;;5033923;28;20436;-79
2021/01/24 11:39:47;;;;;;;383.35;96.78;;;12.00;99.90;;;;;;5020118;28;20435;-79
2021/01/24 11:42:15;;;;;;;379.27;97.13;;;12.00;99.90;;;;;;5022105;28;20432;-78
2021/01/24 11:44:42;;;;;;;388.58;106.28;;;12.00;99.90;;;;;;5040412;28;21251;-79
2021/01/24 11:47:09;;;;;;;386.15;97.53;;;11.90;99.90;;;;;;5007131;28;20485;-79
2021/01/24 11:49:36;;;;;;;385.52;102.20;;;12.00;99.90;;;;;;5040504;28;20470;-79
2021/01/24 11:52:05;;;;;;;379.63;92.10;;;12.00;99.90;;;;;;5045149;28;20422;-80
2021/01/24 11:54:32;;;;;;;385.85;104.35;;;12.00;99.90;;;;;;5026802;28;20419;-79
2021/01/24 11:57:00;;;;;;;379.77;95.07;;;12.00;99.90;;;;;;5019955;28;20425;-79
2021/01/24 11:59:27;;;;;;;378.35;95.95;;;12.00;99.90;;;;;;5018545;28;20462;-79
2021/01/24 12:01:54;;;;;;;378.25;97.85;;;12.00;99.90;;;;;;5006996;28;20426;-79
2021/01/24 12:04:21;;;;;;;374.95;92.97;;;12.00;99.90;;;;;;5006370;28;20429;-79
2021/01/24 12:06:48;;;;;;;378.48;92.13;;;12.00;99.90;;;;;;5042002;28;20419;-79
2021/01/24 12:09:16;;;;;;;378.98;94.03;;;12.00;99.90;;;;;;5054190;28;20626;-79
2021/01/24 12:11:43;;;;;;;380.92;100.88;;;12.00;99.90;;;;;;5004389;28;20442;-79
2021/01/24 12:14:10;;;;;;;379.63;98.35;;;12.00;99.90;;;;;;5020341;28;20429;-79
2021/01/24 12:16:37;;;;;;;379.33;100.43;;;12.00;99.90;;;;;;5020795;28;20429;-79
2021/01/24 12:19:04;;;;;;;383.15;96.10;;;11.90;99.90;;;;;;5021450;28;20460;-79